createdAt,value
2017-06-23T00:00:00.356Z,98.10
2017-06-23T00:02:29.130Z,97.80
2017-06-23T00:04:57.602Z,98.30
2017-06-23T00:07:26.489Z,98.00
2017-06-23T00:09:55.105Z,98.00
2017-06-23T00:12:23.662Z,97.80
2017-06-23T00:14:52.154Z,98.10
2017-06-23T00:17:20.831Z,98.10
2017-06-23T00:19:49.311Z,97.70
2017-06-23T00:22:17.768Z,97.40
2017-06-23T00:24:46.239Z,96.60
2017-06-23T00:27:16.009Z,97.00
2017-06-23T00:29:44.678Z,97.00
2017-06-23T00:32:13.152Z,97.30
2017-06-23T00:34:41.750Z,97.60
2017-06-23T00:37:10.205Z,97.80
2017-06-23T00:39:38.719Z,97.60
2017-06-23T00:42:07.173Z,97.80
2017-06-23T00:44:36.166Z,97.80
2017-06-23T00:47:05.253Z,98.30
2017-06-23T00:49:33.860Z,98.00
2017-06-23T00:52:02.349Z,97.80
2017-06-23T00:54:30.848Z,98.60
2017-06-23T00:56:59.314Z,98.00
2017-06-23T00:59:27.812Z,97.80
2017-06-23T01:01:56.283Z,97.80
2017-06-23T01:04:24.794Z,97.70
2017-06-23T01:06:53.928Z,97.70
2017-06-23T01:09:22.549Z,97.80
2017-06-23T01:11:51.017Z,97.80
2017-06-23T01:14:19.525Z,98.30
2017-06-23T01:16:48.048Z,98.10
2017-06-23T01:19:17.608Z,97.80
2017-06-23T01:21:46.677Z,97.80
2017-06-23T01:24:15.321Z,98.80
2017-06-23T01:26:43.825Z,98.20
2017-06-23T01:29:13.073Z,98.40
2017-06-23T01:31:41.577Z,98.40
2017-06-23T01:34:10.265Z,98.60
2017-06-23T01:36:38.910Z,98.80
2017-06-23T01:39:07.413Z,99.10
2017-06-23T01:41:36.006Z,99.00
2017-06-23T01:44:04.590Z,99.00
2017-06-23T01:46:33.092Z,99.20
2017-06-23T01:49:02.022Z,98.50
2017-06-23T01:51:30.640Z,98.70
2017-06-23T01:53:59.324Z,98.80
2017-06-23T01:56:27.938Z,98.50
2017-06-23T01:58:56.600Z,98.50
2017-06-23T02:01:25.065Z,98.20
2017-06-23T02:03:53.556Z,98.30
2017-06-23T02:06:22.204Z,98.20
2017-06-23T02:08:51.655Z,98.30
2017-06-23T02:11:20.115Z,98.30
2017-06-23T02:13:49.128Z,98.00
2017-06-23T02:16:17.573Z,98.20
2017-06-23T02:18:46.036Z,98.50
2017-06-23T02:21:15.240Z,98.10
2017-06-23T02:23:43.708Z,98.20
2017-06-23T02:26:12.153Z,98.30
2017-06-23T02:28:40.977Z,98.00
2017-06-23T02:31:09.428Z,97.70
2017-06-23T02:33:37.920Z,97.50
2017-06-23T02:36:06.460Z,96.90
2017-06-23T02:38:34.908Z,96.40
2017-06-23T02:41:03.565Z,96.50
2017-06-23T02:43:32.050Z,95.90
2017-06-23T02:46:00.633Z,96.80
2017-06-23T02:48:29.225Z,96.20
2017-06-23T02:50:58.378Z,95.60
2017-06-23T02:53:26.880Z,95.80
2017-06-23T02:55:55.488Z,95.30
2017-06-23T02:58:24.069Z,95.30
2017-06-23T03:00:52.718Z,94.60
2017-06-23T03:03:21.197Z,95.00
2017-06-23T03:05:50.416Z,95.30
2017-06-23T03:08:18.983Z,95.30
2017-06-23T03:10:47.670Z,94.90
2017-06-23T03:13:21.008Z,94.90
2017-06-23T03:15:50.225Z,95.50
2017-06-23T03:18:19.095Z,95.60
2017-06-23T03:20:47.977Z,95.00
2017-06-23T03:23:16.453Z,93.80
2017-06-23T03:25:44.952Z,93.80
2017-06-23T03:28:15.273Z,94.80
2017-06-23T03:30:44.516Z,95.00
2017-06-23T03:33:17.941Z,94.80
2017-06-23T03:35:47.194Z,94.60
2017-06-23T03:38:16.709Z,95.30
2017-06-23T03:40:45.228Z,94.80
2017-06-23T03:43:13.803Z,94.70
2017-06-23T03:45:42.554Z,94.40
2017-06-23T03:48:11.006Z,94.60
2017-06-23T03:50:39.523Z,95.30
2017-06-23T03:53:08.431Z,94.40
2017-06-23T03:55:36.923Z,94.70
2017-06-23T03:58:06.161Z,94.00
2017-06-23T04:00:34.931Z,93.80
2017-06-23T04:03:03.388Z,94.70
2017-06-23T04:05:31.948Z,94.30
2017-06-23T04:08:00.408Z,94.60
2017-06-23T04:10:29.006Z,94.10
2017-06-23T04:12:57.460Z,94.00
2017-06-23T04:15:26.439Z,93.50
2017-06-23T04:17:54.884Z,93.90
2017-06-23T04:20:23.449Z,94.70
2017-06-23T04:22:51.885Z,93.30
2017-06-23T04:25:20.333Z,93.00
2017-06-23T04:27:48.796Z,94.10
2017-06-23T04:30:17.290Z,93.10
2017-06-23T04:32:45.792Z,93.50
2017-06-23T04:35:14.246Z,93.60
2017-06-23T04:37:42.708Z,93.30
2017-06-23T04:40:11.629Z,93.60
2017-06-23T04:42:40.175Z,94.10
2017-06-23T04:45:08.641Z,93.80
2017-06-23T04:47:37.150Z,94.50
2017-06-23T04:50:05.809Z,94.70
2017-06-23T04:52:34.277Z,95.30
2017-06-23T04:55:03.461Z,94.80
2017-06-23T04:57:32.288Z,94.70
2017-06-23T05:00:00.752Z,95.30
2017-06-23T05:02:30.013Z,95.60
2017-06-23T05:04:58.467Z,95.60
2017-06-23T05:07:26.929Z,95.60
2017-06-23T05:09:58.042Z,95.70
2017-06-23T05:12:27.447Z,96.20
2017-06-23T05:14:55.959Z,96.30
2017-06-23T05:17:24.414Z,96.30
2017-06-23T05:19:53.652Z,97.20
2017-06-23T05:22:23.198Z,97.10
2017-06-23T05:24:52.201Z,97.10
2017-06-23T05:27:21.812Z,96.80
2017-06-23T05:29:50.408Z,96.80
2017-06-23T05:32:19.001Z,97.20
2017-06-23T05:34:47.489Z,97.20
2017-06-23T05:37:16.496Z,96.70
2017-06-23T05:39:45.004Z,96.60
2017-06-23T05:42:13.724Z,96.50
2017-06-23T05:44:42.363Z,96.00
2017-06-23T05:47:11.247Z,96.10
2017-06-23T05:49:39.718Z,96.00
2017-06-23T05:52:08.941Z,95.80
2017-06-23T05:54:37.546Z,95.80
2017-06-23T05:57:06.052Z,95.80
2017-06-23T05:59:34.608Z,95.40
2017-06-23T06:02:03.061Z,95.80
2017-06-23T06:04:31.869Z,95.80
2017-06-23T06:07:00.337Z,96.50
2017-06-23T06:09:29.272Z,96.10
2017-06-23T06:11:58.015Z,96.60
2017-06-23T06:14:27.045Z,96.30
2017-06-23T06:16:55.552Z,96.10
2017-06-23T06:19:24.073Z,96.00
2017-06-23T06:21:52.652Z,96.10
2017-06-23T06:24:21.364Z,95.50
2017-06-23T06:26:50.119Z,95.10
2017-06-23T06:29:18.626Z,95.90
2017-06-23T06:31:47.117Z,95.60
2017-06-23T06:34:15.824Z,95.30
2017-06-23T06:36:44.388Z,94.90
2017-06-23T06:39:14.296Z,95.30
2017-06-23T06:41:42.977Z,95.00
2017-06-23T06:44:11.449Z,95.20
2017-06-23T06:46:40.759Z,94.10
2017-06-23T06:49:09.277Z,94.10
2017-06-23T06:51:37.752Z,94.80
2017-06-23T06:54:06.583Z,94.70
2017-06-23T06:56:35.317Z,95.10
2017-06-23T06:59:03.798Z,95.00
2017-06-23T07:01:32.415Z,95.30
2017-06-23T07:04:00.921Z,94.20
2017-06-23T07:06:29.401Z,94.50
2017-06-23T07:08:57.933Z,94.40
2017-06-23T07:11:26.917Z,94.30
2017-06-23T07:13:56.630Z,94.80
2017-06-23T07:16:25.133Z,94.60
2017-06-23T07:18:53.634Z,94.70
2017-06-23T07:21:22.278Z,94.40
2017-06-23T07:23:50.903Z,94.10
2017-06-23T07:26:19.402Z,94.30
2017-06-23T07:28:48.136Z,94.50
2017-06-23T07:31:16.690Z,93.50
2017-06-23T07:33:45.629Z,94.20
2017-06-23T07:36:14.196Z,94.30
2017-06-23T07:38:42.737Z,94.00
2017-06-23T07:41:11.300Z,94.00
2017-06-23T07:43:39.846Z,93.30
2017-06-23T07:46:08.746Z,93.60
2017-06-23T07:48:37.426Z,93.20
2017-06-23T07:51:06.030Z,93.50
2017-06-23T07:53:34.545Z,93.00
2017-06-23T07:56:03.024Z,92.90
2017-06-23T07:58:31.937Z,93.30
2017-06-23T08:01:00.493Z,94.10
2017-06-23T08:03:28.965Z,92.70
2017-06-23T08:05:57.637Z,92.70
2017-06-23T08:08:26.272Z,92.80
2017-06-23T08:10:54.844Z,93.10
2017-06-23T08:13:23.417Z,92.70
2017-06-23T08:15:51.925Z,92.80
2017-06-23T08:18:20.597Z,93.30
2017-06-23T08:20:49.461Z,93.50
2017-06-23T08:23:17.932Z,93.50
2017-06-23T08:25:46.410Z,93.00
2017-06-23T08:28:14.893Z,93.10
2017-06-23T08:30:44.044Z,93.80
2017-06-23T08:33:12.656Z,93.00
2017-06-23T08:35:41.873Z,93.40
2017-06-23T08:38:10.389Z,93.40
2017-06-23T08:40:39.325Z,93.00
2017-06-23T08:43:09.002Z,93.20
2017-06-23T08:45:41.168Z,93.10
2017-06-23T08:48:10.061Z,93.30
2017-06-23T08:50:38.549Z,93.50
2017-06-23T08:53:07.492Z,93.00
2017-06-23T08:55:36.053Z,93.80
2017-06-23T08:58:05.378Z,92.00
2017-06-23T09:00:33.832Z,91.80
2017-06-23T09:03:02.313Z,91.00
2017-06-23T09:05:31.213Z,90.70
2017-06-23T09:08:00.437Z,90.70
2017-06-23T09:10:28.992Z,90.60
2017-06-23T09:12:58.238Z,89.50
2017-06-23T09:15:26.821Z,89.50
2017-06-23T09:17:55.474Z,90.60
2017-06-23T09:20:24.668Z,90.40
2017-06-23T09:22:53.509Z,91.00
2017-06-23T09:25:22.140Z,89.60
2017-06-23T09:27:51.464Z,87.30
2017-06-23T09:30:19.916Z,87.30
2017-06-23T09:32:48.393Z,86.10
2017-06-23T09:35:16.912Z,86.10
2017-06-23T09:37:45.750Z,87.00
2017-06-23T09:40:14.285Z,85.80
2017-06-23T09:42:42.808Z,85.80
2017-06-23T09:45:11.357Z,86.30
2017-06-23T09:47:40.348Z,86.60
2017-06-23T09:50:09.288Z,86.90
2017-06-23T09:52:37.765Z,85.00
2017-06-23T09:55:06.465Z,83.40
2017-06-23T09:57:34.952Z,80.70
2017-06-23T10:00:03.586Z,81.20
2017-06-23T10:02:32.100Z,77.60
2017-06-23T10:05:00.716Z,77.70
2017-06-23T10:07:29.654Z,76.30
2017-06-23T10:09:58.508Z,77.50
2017-06-23T10:12:27.764Z,76.10
2017-06-23T10:14:56.549Z,76.10
2017-06-23T10:17:25.117Z,72.40
2017-06-23T10:19:54.351Z,71.10
2017-06-23T10:22:22.804Z,71.60
2017-06-23T10:24:51.615Z,70.60
2017-06-23T10:27:20.085Z,69.80
2017-06-23T10:29:49.043Z,71.70
2017-06-23T10:32:19.051Z,68.30
2017-06-23T10:34:48.345Z,69.60
2017-06-23T10:37:20.678Z,67.40
2017-06-23T10:39:50.057Z,66.60
2017-06-23T10:42:18.537Z,68.20
2017-06-23T10:44:47.540Z,67.60
2017-06-23T10:47:16.216Z,67.70
2017-06-23T10:49:44.839Z,63.70
2017-06-23T10:52:13.413Z,61.60
2017-06-23T10:54:41.988Z,61.20
2017-06-23T10:57:10.637Z,59.40
2017-06-23T10:59:40.482Z,56.00
2017-06-23T11:02:09.868Z,56.00
2017-06-23T11:04:38.381Z,57.30
2017-06-23T11:07:06.953Z,57.30
2017-06-23T11:09:35.554Z,55.40
2017-06-23T11:12:04.020Z,57.60
2017-06-23T11:14:32.665Z,56.90
2017-06-23T11:17:02.033Z,56.80
2017-06-23T11:19:30.509Z,56.00
2017-06-23T11:21:59.306Z,57.50
2017-06-23T11:24:27.798Z,59.40
2017-06-23T11:26:57.775Z,58.30
2017-06-23T11:29:26.377Z,59.10
2017-06-23T11:31:54.905Z,58.30
2017-06-23T11:34:32.461Z,59.20
2017-06-23T11:37:01.024Z,58.40
2017-06-23T11:39:29.740Z,60.00
2017-06-23T11:41:58.490Z,59.50
2017-06-23T11:44:27.033Z,58.10
2017-06-23T11:46:55.572Z,59.20
2017-06-23T11:49:24.068Z,60.20
2017-06-23T11:51:53.189Z,58.20
2017-06-23T11:54:28.273Z,56.40
2017-06-23T11:56:56.858Z,57.50
2017-06-23T11:59:25.761Z,53.80
2017-06-23T12:01:54.649Z,51.50
2017-06-23T12:04:25.200Z,54.20
2017-06-23T12:06:55.498Z,54.20
2017-06-23T12:09:24.209Z,54.60
2017-06-23T12:11:54.841Z,55.20
2017-06-23T12:14:27.397Z,55.40
2017-06-23T12:16:58.240Z,55.30
2017-06-23T12:19:28.083Z,54.00
2017-06-23T12:21:56.983Z,52.40
2017-06-23T12:24:26.798Z,54.50
2017-06-23T12:26:56.445Z,53.50
2017-06-23T12:29:25.082Z,53.60
2017-06-23T12:31:54.097Z,53.60
2017-06-23T12:34:23.036Z,51.30
2017-06-23T12:36:52.136Z,51.10
2017-06-23T12:39:21.363Z,50.80
2017-06-23T12:41:50.258Z,52.50
2017-06-23T12:44:18.893Z,51.80
2017-06-23T12:46:49.181Z,57.50
2017-06-23T12:49:22.922Z,57.40
2017-06-23T12:51:53.844Z,53.60
2017-06-23T12:54:24.742Z,52.50
2017-06-23T12:56:54.343Z,50.50
2017-06-23T12:59:25.066Z,52.40
2017-06-23T13:01:59.774Z,51.60
2017-06-23T13:04:30.608Z,52.90
2017-06-23T13:06:59.418Z,52.80
2017-06-23T13:09:29.180Z,51.90
2017-06-23T13:11:59.139Z,53.40
2017-06-23T13:14:29.840Z,54.50
2017-06-23T13:16:59.544Z,53.10
2017-06-23T13:19:32.753Z,53.80
2017-06-23T13:22:08.313Z,50.50
2017-06-23T13:24:38.646Z,51.50
2017-06-23T13:27:08.787Z,52.30
2017-06-23T13:29:37.277Z,52.90
2017-06-23T13:32:05.785Z,53.00
2017-06-23T13:34:35.432Z,52.10
2017-06-23T13:37:05.960Z,52.10
2017-06-23T13:39:36.417Z,54.60
2017-06-23T13:42:06.431Z,54.60
2017-06-23T13:44:36.508Z,54.60
2017-06-23T13:47:06.645Z,54.80
2017-06-23T13:49:37.071Z,55.10
2017-06-23T13:52:07.835Z,52.40
2017-06-23T13:54:40.554Z,53.10
2017-06-23T13:57:10.347Z,52.60
2017-06-23T13:59:38.829Z,52.20
2017-06-23T14:02:07.707Z,53.10
2017-06-23T14:04:39.029Z,51.90
2017-06-23T14:07:07.809Z,55.80
2017-06-23T14:09:41.616Z,55.30
2017-06-23T14:12:10.254Z,55.20
2017-06-23T14:14:41.115Z,53.80
2017-06-23T14:17:15.256Z,54.20
2017-06-23T14:19:46.984Z,55.30
2017-06-23T14:22:17.521Z,53.60
2017-06-23T14:24:47.317Z,55.40
2017-06-23T14:27:19.181Z,52.90
2017-06-23T14:29:48.843Z,53.60
2017-06-23T14:32:17.725Z,55.00
2017-06-23T14:34:46.528Z,53.80
2017-06-23T14:37:15.872Z,52.30
2017-06-23T14:39:46.629Z,51.70
2017-06-23T14:42:15.674Z,51.30
2017-06-23T14:44:45.590Z,52.50
2017-06-23T14:47:15.846Z,51.30
2017-06-23T14:49:52.300Z,52.40
2017-06-23T14:52:20.852Z,53.40
2017-06-23T14:54:50.052Z,55.90
2017-06-23T14:57:18.529Z,54.80
2017-06-23T14:59:47.138Z,54.30
2017-06-23T15:02:15.594Z,54.80
2017-06-23T15:04:44.223Z,53.50
2017-06-23T15:07:12.692Z,52.20
2017-06-23T15:09:41.189Z,53.20
2017-06-23T15:12:09.749Z,53.90
2017-06-23T15:14:38.629Z,54.10
2017-06-23T15:17:07.205Z,53.30
2017-06-23T15:19:36.150Z,55.50
2017-06-23T15:22:04.718Z,54.80
2017-06-23T15:24:33.190Z,54.60
2017-06-23T15:27:01.898Z,54.20
2017-06-23T15:29:30.438Z,54.00
2017-06-23T15:31:59.002Z,52.20
2017-06-23T15:34:28.240Z,52.30
2017-06-23T15:36:56.741Z,52.30
2017-06-23T15:39:26.395Z,53.40
2017-06-23T15:41:55.314Z,54.20
2017-06-23T15:44:24.094Z,51.80
2017-06-23T15:46:52.841Z,51.60
2017-06-23T15:49:21.537Z,51.80
2017-06-23T15:51:50.017Z,51.70
2017-06-23T15:54:19.048Z,51.80
2017-06-23T15:56:47.522Z,54.10
2017-06-23T15:59:16.748Z,53.20
2017-06-23T16:01:45.260Z,53.20
2017-06-23T16:04:13.946Z,53.80
2017-06-23T16:06:42.611Z,54.20
2017-06-23T16:09:11.417Z,53.90
2017-06-23T16:11:40.008Z,54.10
2017-06-23T16:14:08.549Z,54.90
2017-06-23T16:16:38.404Z,56.10
2017-06-23T16:19:06.964Z,55.40
2017-06-23T16:21:35.429Z,55.90
2017-06-23T16:24:03.965Z,56.40
2017-06-23T16:26:32.620Z,55.90
2017-06-23T16:29:01.197Z,55.50
2017-06-23T16:31:29.722Z,53.80
2017-06-23T16:33:58.217Z,54.40
2017-06-23T16:36:27.024Z,55.60
2017-06-23T16:38:56.360Z,56.10
2017-06-23T16:41:24.932Z,56.10
2017-06-23T16:43:53.435Z,56.50
2017-06-23T16:46:21.922Z,57.80
2017-06-23T16:48:50.403Z,57.50
2017-06-23T16:51:19.057Z,58.50
2017-06-23T16:53:49.017Z,60.50
2017-06-23T16:56:17.759Z,59.00
2017-06-23T16:58:47.304Z,58.50
2017-06-23T17:01:16.102Z,59.50
2017-06-23T17:03:44.581Z,58.90
2017-06-23T17:06:13.576Z,58.80
2017-06-23T17:08:42.069Z,59.40
2017-06-23T17:11:10.873Z,59.90
2017-06-23T17:13:39.352Z,59.80
2017-06-23T17:16:08.078Z,59.90
2017-06-23T17:18:36.767Z,60.30
2017-06-23T17:21:05.385Z,61.00
2017-06-23T17:23:34.076Z,60.80
2017-06-23T17:26:02.822Z,60.90
2017-06-23T17:28:31.480Z,61.60
2017-06-23T17:31:00.434Z,61.50
2017-06-23T17:33:29.021Z,62.10
2017-06-23T17:35:57.496Z,62.70
2017-06-23T17:38:26.043Z,63.00
2017-06-23T17:40:55.243Z,64.20
2017-06-23T17:43:23.725Z,64.10
2017-06-23T17:45:52.221Z,66.70
2017-06-23T17:48:20.856Z,69.20
2017-06-23T17:50:49.450Z,69.70
2017-06-23T17:53:18.429Z,71.00
2017-06-23T17:55:47.071Z,71.50
2017-06-23T17:58:15.616Z,72.20
2017-06-23T18:00:44.754Z,71.70
2017-06-23T18:03:13.220Z,72.30
2017-06-23T18:05:42.000Z,72.30
2017-06-23T18:08:10.497Z,73.30
2017-06-23T18:10:38.992Z,74.40
2017-06-23T18:13:08.214Z,75.30
2017-06-23T18:15:36.672Z,76.90
2017-06-23T18:18:05.175Z,78.50
2017-06-23T18:20:33.936Z,80.20
2017-06-23T18:23:02.627Z,81.60
2017-06-23T18:25:31.124Z,82.80
2017-06-23T18:27:59.600Z,84.10
2017-06-23T18:30:28.137Z,85.00
2017-06-23T18:32:57.684Z,85.70
2017-06-23T18:35:26.367Z,86.70
2017-06-23T18:37:54.833Z,87.40
2017-06-23T18:40:24.280Z,89.10
2017-06-23T18:42:52.857Z,89.00
2017-06-23T18:45:22.036Z,89.40
2017-06-23T18:47:50.622Z,89.70
2017-06-23T18:50:19.344Z,90.20
2017-06-23T18:52:48.034Z,90.60
2017-06-23T18:55:16.722Z,90.20
2017-06-23T18:57:45.205Z,90.30
2017-06-23T19:00:14.016Z,89.60
2017-06-23T19:02:42.496Z,91.00
2017-06-23T19:05:10.977Z,91.50
2017-06-23T19:07:39.447Z,91.30
2017-06-23T19:10:07.909Z,89.60
2017-06-23T19:12:36.405Z,88.80
2017-06-23T19:15:05.398Z,90.00
2017-06-23T19:17:33.952Z,90.80
2017-06-23T19:20:02.437Z,90.90
2017-06-23T19:22:30.921Z,90.70
2017-06-23T19:25:00.089Z,91.60
2017-06-23T19:27:29.409Z,91.20
2017-06-23T19:29:57.905Z,91.20
2017-06-23T19:32:26.616Z,91.50
2017-06-23T19:34:55.180Z,91.20
2017-06-23T19:37:23.750Z,91.50
2017-06-23T19:39:52.260Z,90.40
2017-06-23T19:42:20.970Z,91.60
2017-06-23T19:44:49.813Z,90.70
2017-06-23T19:47:18.737Z,91.40
2017-06-23T19:49:47.220Z,92.20
2017-06-23T19:52:15.806Z,91.80
2017-06-23T19:54:44.290Z,92.10
2017-06-23T19:57:12.756Z,91.80
2017-06-23T19:59:41.292Z,92.20
2017-06-23T20:02:10.666Z,93.00
2017-06-23T20:04:39.194Z,92.20
2017-06-23T20:07:07.705Z,92.60
2017-06-23T20:09:36.640Z,92.40
2017-06-23T20:12:05.123Z,93.00
2017-06-23T20:14:34.608Z,92.40
2017-06-23T20:17:03.422Z,93.80
2017-06-23T20:19:32.248Z,92.10
2017-06-23T20:22:00.761Z,92.70
2017-06-23T20:24:29.337Z,92.40
2017-06-23T20:26:57.820Z,92.50
2017-06-23T20:29:26.317Z,92.60
2017-06-23T20:31:54.833Z,91.70
2017-06-23T20:34:23.845Z,92.40
2017-06-23T20:36:52.361Z,92.30
2017-06-23T20:39:20.964Z,92.30
2017-06-23T20:41:49.692Z,92.80
2017-06-23T20:44:18.168Z,92.30
2017-06-23T20:46:46.817Z,92.00
2017-06-23T20:49:15.462Z,92.20
2017-06-23T20:51:45.799Z,93.10
2017-06-23T20:54:14.386Z,92.90
2017-06-23T20:56:42.917Z,92.60
2017-06-23T20:59:11.493Z,92.60
2017-06-23T21:01:40.000Z,92.60
2017-06-23T21:04:08.496Z,92.90
2017-06-23T21:06:38.020Z,93.20
2017-06-23T21:09:06.525Z,93.00
2017-06-23T21:11:35.251Z,93.70
2017-06-23T21:14:03.847Z,93.80
2017-06-23T21:16:33.313Z,93.30
2017-06-23T21:19:02.076Z,93.40
2017-06-23T21:21:31.899Z,92.90
2017-06-23T21:24:00.396Z,93.50
2017-06-23T21:26:29.144Z,93.20
2017-06-23T21:28:58.907Z,94.50
2017-06-23T21:31:27.364Z,93.50
2017-06-23T21:33:55.949Z,93.40
2017-06-23T21:36:24.519Z,93.60
2017-06-23T21:38:53.013Z,92.90
2017-06-23T21:42:02.503Z,93.60
2017-06-23T21:44:31.547Z,92.30
2017-06-23T21:47:00.885Z,92.00
2017-06-23T21:49:29.547Z,91.80
2017-06-23T21:51:58.045Z,91.70
2017-06-23T21:54:28.336Z,90.70
2017-06-23T21:56:57.072Z,90.60
2017-06-23T21:59:25.792Z,89.70
2017-06-23T22:01:54.257Z,88.20
2017-06-23T22:04:23.068Z,89.30
2017-06-23T22:06:52.286Z,88.70
2017-06-23T22:09:20.757Z,88.60
2017-06-23T22:11:49.763Z,88.30
2017-06-23T22:14:18.664Z,88.50
2017-06-23T22:16:47.288Z,89.50
2017-06-23T22:19:16.409Z,89.20
2017-06-23T22:21:44.861Z,89.80
2017-06-23T22:24:13.400Z,89.80
2017-06-23T22:26:42.017Z,90.30
2017-06-23T22:29:10.493Z,89.90
2017-06-23T22:31:39.456Z,90.50
2017-06-23T22:34:08.766Z,89.90
2017-06-23T22:36:37.237Z,89.80
2017-06-23T22:39:06.467Z,90.50
2017-06-23T22:41:37.429Z,90.30
2017-06-23T22:44:09.373Z,90.50
2017-06-23T22:46:38.383Z,91.20
2017-06-23T22:49:06.851Z,90.10
2017-06-23T22:51:35.664Z,91.20
2017-06-23T22:54:04.337Z,90.60
2017-06-23T22:56:33.506Z,91.00
2017-06-23T22:59:02.372Z,91.40
2017-06-23T23:01:31.609Z,93.20
2017-06-23T23:04:00.075Z,93.00
2017-06-23T23:06:28.537Z,93.20
2017-06-23T23:08:57.120Z,93.50
2017-06-23T23:11:25.661Z,93.30
2017-06-23T23:13:54.147Z,94.50
2017-06-23T23:16:22.832Z,94.00
2017-06-23T23:18:51.688Z,94.90
2017-06-23T23:21:20.277Z,94.70
2017-06-23T23:23:48.773Z,94.60
2017-06-23T23:26:17.252Z,95.20
2017-06-23T23:28:45.874Z,94.80
2017-06-23T23:31:14.349Z,95.10
2017-06-23T23:33:43.093Z,94.80
2017-06-23T23:36:11.986Z,95.60
2017-06-23T23:38:40.449Z,95.30
2017-06-23T23:41:09.769Z,95.30
2017-06-23T23:43:38.227Z,95.30
2017-06-23T23:46:07.191Z,95.60
2017-06-23T23:48:35.774Z,95.90
2017-06-23T23:51:04.238Z,95.80
2017-06-23T23:53:32.716Z,95.50
2017-06-23T23:56:01.341Z,96.00
2017-06-23T23:58:30.021Z,95.40
